createdAt,value
2018-08-22T00:01:10.136Z,1.80
2018-08-22T00:03:38.495Z,1.40
2018-08-22T00:06:06.872Z,1.73
2018-08-22T00:08:40.558Z,1.70
2018-08-22T00:11:08.947Z,1.77
2018-08-22T00:13:37.296Z,1.70
2018-08-22T00:16:05.695Z,1.47
2018-08-22T00:18:34.043Z,1.53
2018-08-22T00:21:02.492Z,1.83
2018-08-22T00:23:30.846Z,1.73
2018-08-22T00:25:59.256Z,1.80
2018-08-22T00:28:27.595Z,1.63
2018-08-22T00:30:56.008Z,1.60
2018-08-22T00:33:24.430Z,1.30
2018-08-22T00:35:52.876Z,1.60
2018-08-22T00:38:21.232Z,1.37
2018-08-22T00:40:49.636Z,1.57
2018-08-22T00:43:17.984Z,1.50
2018-08-22T00:45:46.359Z,1.47
2018-08-22T00:48:14.727Z,1.53
2018-08-22T00:50:43.099Z,1.53
2018-08-22T00:53:11.444Z,1.40
2018-08-22T00:55:39.897Z,1.60
2018-08-22T00:58:08.250Z,1.60
2018-08-22T01:00:36.689Z,1.40
2018-08-22T01:03:05.048Z,1.70
2018-08-22T01:05:33.409Z,1.50
2018-08-22T01:08:01.747Z,1.57
2018-08-22T01:10:30.132Z,1.70
2018-08-22T01:12:58.635Z,1.60
2018-08-22T01:15:26.998Z,1.50
2018-08-22T01:17:55.347Z,1.60
2018-08-22T01:20:24.221Z,1.50
2018-08-22T01:22:52.576Z,1.50
2018-08-22T01:25:20.976Z,1.67
2018-08-22T01:27:49.329Z,1.40
2018-08-22T01:30:17.711Z,1.50
2018-08-22T01:32:46.075Z,1.43
2018-08-22T01:35:14.686Z,1.47
2018-08-22T01:37:43.019Z,1.83
2018-08-22T01:40:11.423Z,1.60
2018-08-22T01:42:39.776Z,1.60
2018-08-22T01:45:08.157Z,1.37
2018-08-22T01:47:36.499Z,1.43
2018-08-22T01:50:04.848Z,1.77
2018-08-22T01:52:33.190Z,1.90
2018-08-22T01:55:01.531Z,1.83
2018-08-22T01:57:29.895Z,1.93
2018-08-22T01:59:58.248Z,1.47
2018-08-22T02:02:26.671Z,1.47
2018-08-22T02:04:55.039Z,1.50
2018-08-22T02:07:23.371Z,1.30
2018-08-22T02:09:51.773Z,1.70
2018-08-22T02:12:20.111Z,1.40
2018-08-22T02:14:48.636Z,1.50
2018-08-22T02:17:16.994Z,1.40
2018-08-22T02:19:45.306Z,1.40
2018-08-22T02:22:13.684Z,1.47
2018-08-22T02:24:41.995Z,1.70
2018-08-22T02:27:10.363Z,1.30
2018-08-22T02:29:38.683Z,1.20
2018-08-22T02:32:07.532Z,1.57
2018-08-22T02:34:35.879Z,1.40
2018-08-22T02:37:04.276Z,1.70
2018-08-22T02:39:32.597Z,1.40
2018-08-22T02:42:00.956Z,1.60
2018-08-22T02:44:29.280Z,1.60
2018-08-22T02:46:57.622Z,1.40
2018-08-22T02:49:25.939Z,1.30
2018-08-22T02:51:54.289Z,1.60
2018-08-22T02:54:22.619Z,1.47
2018-08-22T02:56:50.972Z,1.67
2018-08-22T02:59:19.294Z,1.40
2018-08-22T03:01:47.641Z,1.60
2018-08-22T03:04:15.971Z,1.50
2018-08-22T03:06:44.322Z,1.43
2018-08-22T03:09:12.639Z,1.77
2018-08-22T03:11:40.994Z,1.60
2018-08-22T03:14:09.335Z,1.33
2018-08-22T03:16:37.798Z,1.67
2018-08-22T03:19:06.123Z,1.50
2018-08-22T03:21:34.489Z,1.60
2018-08-22T03:24:02.805Z,1.83
2018-08-22T03:26:31.167Z,1.60
2018-08-22T03:28:59.770Z,1.57
2018-08-22T03:31:28.090Z,1.53
2018-08-22T03:33:56.454Z,1.77
2018-08-22T03:36:24.779Z,1.70
2018-08-22T03:38:53.127Z,1.53
2018-08-22T03:41:21.448Z,1.57
2018-08-22T03:43:49.807Z,1.63
2018-08-22T03:46:18.136Z,1.40
2018-08-22T03:48:46.488Z,1.50
2018-08-22T03:51:14.811Z,1.30
2018-08-22T03:53:43.151Z,1.60
2018-08-22T03:56:11.467Z,1.60
2018-08-22T03:58:39.820Z,1.40
2018-08-22T04:01:08.144Z,1.60
2018-08-22T04:03:36.506Z,1.40
2018-08-22T04:06:04.826Z,1.60
2018-08-22T04:08:33.163Z,1.60
2018-08-22T04:11:01.479Z,1.50
2018-08-22T04:13:29.865Z,1.57
2018-08-22T04:15:58.191Z,1.53
2018-08-22T04:18:26.671Z,1.53
2018-08-22T04:20:54.987Z,1.73
2018-08-22T04:23:23.340Z,1.60
2018-08-22T04:25:51.664Z,1.53
2018-08-22T04:28:19.995Z,1.70
2018-08-22T04:30:48.335Z,1.60
2018-08-22T04:33:16.651Z,1.50
2018-08-22T04:35:44.966Z,1.90
2018-08-22T04:38:13.308Z,1.57
2018-08-22T04:40:41.607Z,1.50
2018-08-22T04:43:09.953Z,1.80
2018-08-22T04:45:38.283Z,1.60
2018-08-22T04:48:06.659Z,1.70
2018-08-22T04:50:34.939Z,1.60
2018-08-22T04:53:03.273Z,1.70
2018-08-22T04:55:31.633Z,1.63
2018-08-22T04:58:00.106Z,1.70
2018-08-22T05:00:28.414Z,1.67
2018-08-22T05:02:56.747Z,1.80
2018-08-22T05:05:25.068Z,1.50
2018-08-22T05:07:53.393Z,1.70
2018-08-22T05:10:21.722Z,1.60
2018-08-22T05:12:50.050Z,1.60
2018-08-22T05:15:18.368Z,1.40
2018-08-22T05:17:46.706Z,1.53
2018-08-22T05:20:15.019Z,1.30
2018-08-22T05:22:43.402Z,1.57
2018-08-22T05:25:11.863Z,1.53
2018-08-22T05:27:40.176Z,1.40
2018-08-22T05:30:08.553Z,1.50
2018-08-22T05:32:37.088Z,1.73
2018-08-22T05:35:05.768Z,1.80
2018-08-22T05:37:34.461Z,1.53
2018-08-22T05:40:02.964Z,1.40
2018-08-22T05:42:31.275Z,1.57
2018-08-22T05:44:59.611Z,1.67
2018-08-22T05:47:27.931Z,1.70
2018-08-22T05:49:56.263Z,1.60
2018-08-22T05:52:24.598Z,1.60
2018-08-22T05:54:52.935Z,1.67
2018-08-22T05:57:21.525Z,1.70
2018-08-22T05:59:49.968Z,1.50
2018-08-22T06:02:18.292Z,1.80
2018-08-22T06:04:46.631Z,1.67
2018-08-22T06:07:14.948Z,1.70
2018-08-22T06:09:43.310Z,1.70
2018-08-22T06:12:11.637Z,1.70
2018-08-22T06:14:39.988Z,1.60
2018-08-22T06:17:08.311Z,1.60
2018-08-22T06:19:36.666Z,1.50
2018-08-22T06:22:04.995Z,1.90
2018-08-22T06:24:33.348Z,1.80
2018-08-22T06:27:01.697Z,1.83
2018-08-22T06:29:30.065Z,1.77
2018-08-22T06:31:58.396Z,1.60
2018-08-22T06:34:26.742Z,1.80
2018-08-22T06:36:55.067Z,1.90
2018-08-22T06:39:23.411Z,1.90
2018-08-22T06:41:51.733Z,1.70
2018-08-22T06:44:20.445Z,1.90
2018-08-22T06:46:48.732Z,2.03
2018-08-22T06:49:17.075Z,1.93
2018-08-22T06:51:45.413Z,1.83
2018-08-22T06:54:13.755Z,1.90
2018-08-22T06:56:42.092Z,1.60
2018-08-22T06:59:10.439Z,2.00
2018-08-22T07:01:38.827Z,1.80
2018-08-22T07:04:07.167Z,1.80
2018-08-22T07:06:35.503Z,1.77
2018-08-22T07:09:05.992Z,1.87
2018-08-22T07:11:34.303Z,2.20
2018-08-22T07:14:02.658Z,2.00
2018-08-22T07:16:30.963Z,1.67
2018-08-22T07:18:59.280Z,2.10
2018-08-22T07:21:27.635Z,1.90
2018-08-22T07:23:55.963Z,2.03
2018-08-22T07:26:24.321Z,1.97
2018-08-22T07:28:52.627Z,2.10
2018-08-22T07:31:20.961Z,2.20
2018-08-22T07:33:49.324Z,1.90
2018-08-22T07:36:17.661Z,1.90
2018-08-22T07:38:45.999Z,1.70
2018-08-22T07:41:14.331Z,1.80
2018-08-22T07:43:42.725Z,1.97
2018-08-22T07:46:11.068Z,1.70
2018-08-22T07:48:39.447Z,2.10
2018-08-22T07:51:07.867Z,1.80
2018-08-22T07:53:36.180Z,1.93
2018-08-22T07:56:04.547Z,1.87
2018-08-22T07:58:32.880Z,1.83
2018-08-22T08:01:01.226Z,1.80
2018-08-22T08:03:29.655Z,1.90
2018-08-22T08:05:57.997Z,1.67
2018-08-22T08:08:26.323Z,1.80
2018-08-22T08:10:54.688Z,1.77
2018-08-22T08:13:28.243Z,1.90
2018-08-22T08:15:56.839Z,1.70
2018-08-22T08:18:25.159Z,1.50
2018-08-22T08:20:53.506Z,1.50
2018-08-22T08:23:21.824Z,1.90
2018-08-22T08:25:50.192Z,1.60
2018-08-22T08:28:18.507Z,1.83
2018-08-22T08:30:46.841Z,1.60
2018-08-22T08:33:15.148Z,1.70
2018-08-22T08:35:43.531Z,1.77
2018-08-22T08:38:11.877Z,1.90
2018-08-22T08:40:40.207Z,1.70
2018-08-22T08:43:08.527Z,1.50
2018-08-22T08:45:38.666Z,1.80
2018-08-22T08:48:07.096Z,1.40
2018-08-22T08:50:35.488Z,1.60
2018-08-22T08:53:03.838Z,1.90
2018-08-22T08:55:32.179Z,1.60
2018-08-22T08:58:00.505Z,1.77
2018-08-22T09:00:28.852Z,1.80
2018-08-22T09:02:57.200Z,1.60
2018-08-22T09:05:25.590Z,1.80
2018-08-22T09:07:53.944Z,1.70
2018-08-22T09:10:22.292Z,1.93
2018-08-22T09:12:50.635Z,1.85
2018-08-22T09:15:18.957Z,1.80
2018-08-22T09:17:47.292Z,1.52
2018-08-22T09:20:15.617Z,1.47
2018-08-22T09:22:43.972Z,1.90
2018-08-22T09:25:12.359Z,1.77
2018-08-22T09:27:40.712Z,1.87
2018-08-22T09:30:09.038Z,1.87
2018-08-22T09:32:37.448Z,2.10
2018-08-22T09:35:05.812Z,1.80
2018-08-22T09:37:34.147Z,1.67
2018-08-22T09:40:02.532Z,1.60
2018-08-22T09:42:30.889Z,1.70
2018-08-22T09:44:59.209Z,1.77
2018-08-22T09:47:27.544Z,1.90
2018-08-22T09:49:56.103Z,1.80
2018-08-22T09:52:24.440Z,1.77
2018-08-22T09:55:00.458Z,1.77
2018-08-22T09:57:29.540Z,1.98
2018-08-22T09:59:57.891Z,1.70
2018-08-22T10:02:26.228Z,1.80
2018-08-22T10:04:54.750Z,1.95
2018-08-22T10:07:23.301Z,1.80
2018-08-22T10:09:51.747Z,1.80
2018-08-22T10:12:20.124Z,1.80
2018-08-22T10:14:48.452Z,1.90
2018-08-22T10:17:17.029Z,1.75
2018-08-22T10:19:45.459Z,1.87
2018-08-22T10:22:13.717Z,1.80
2018-08-22T10:24:42.108Z,1.85
2018-08-22T10:27:10.551Z,1.92
2018-08-22T10:29:38.848Z,2.12
2018-08-22T10:32:07.220Z,1.85
2018-08-22T10:34:35.550Z,1.80
2018-08-22T10:37:03.907Z,2.00
2018-08-22T10:39:32.312Z,2.20
2018-08-22T10:42:00.621Z,1.98
2018-08-22T10:44:29.004Z,1.98
2018-08-22T10:46:57.327Z,2.02
2018-08-22T10:49:25.655Z,2.20
2018-08-22T10:51:53.989Z,1.77
2018-08-22T10:54:22.360Z,1.90
2018-08-22T10:56:50.753Z,2.15
2018-08-22T10:59:19.111Z,2.20
2018-08-22T11:01:47.478Z,2.60
2018-08-22T11:04:15.813Z,2.40
2018-08-22T11:06:44.143Z,2.45
2018-08-22T11:09:12.483Z,2.70
2018-08-22T11:11:40.812Z,2.60
2018-08-22T11:14:09.515Z,2.87
2018-08-22T11:16:38.063Z,2.52
2018-08-22T11:19:06.596Z,2.70
2018-08-22T11:21:46.381Z,2.70
2018-08-22T11:24:26.108Z,2.80
2018-08-22T11:27:05.752Z,2.90
2018-08-22T11:29:45.460Z,2.70
2018-08-22T11:32:25.239Z,2.92
2018-08-22T11:34:52.996Z,2.80
2018-08-22T11:37:21.439Z,2.70
2018-08-22T11:39:50.851Z,3.33
2018-08-22T11:42:19.428Z,2.65
2018-08-22T11:44:47.768Z,2.80
2018-08-22T11:47:16.085Z,3.12
2018-08-22T11:49:44.419Z,2.90
2018-08-22T11:52:12.736Z,2.98
2018-08-22T11:54:41.077Z,2.70
2018-08-22T11:57:09.403Z,3.00
2018-08-22T11:59:37.752Z,2.98
2018-08-22T12:02:06.097Z,3.40
2018-08-22T12:04:34.453Z,3.30
2018-08-22T12:07:02.785Z,3.37
2018-08-22T12:09:31.135Z,3.30
2018-08-22T12:11:59.457Z,3.30
2018-08-22T12:14:27.840Z,3.02
2018-08-22T12:16:56.154Z,3.10
2018-08-22T12:19:24.485Z,3.30
2018-08-22T12:21:52.814Z,3.45
2018-08-22T12:24:21.151Z,3.55
2018-08-22T12:26:49.505Z,3.30
2018-08-22T12:29:17.851Z,3.40
2018-08-22T12:31:46.172Z,3.20
2018-08-22T12:34:14.525Z,2.98
2018-08-22T12:36:42.885Z,3.02
2018-08-22T12:39:11.348Z,3.05
2018-08-22T12:41:39.683Z,3.35
2018-08-22T12:44:08.034Z,3.45
2018-08-22T12:46:36.354Z,3.40
2018-08-22T12:49:04.754Z,3.25
2018-08-22T12:51:33.120Z,3.40
2018-08-22T12:54:01.452Z,3.42
2018-08-22T12:56:29.791Z,3.55
2018-08-22T12:58:58.133Z,3.80
2018-08-22T13:01:26.487Z,3.25
2018-08-22T13:03:54.834Z,3.15
2018-08-22T13:06:23.180Z,3.20
2018-08-22T13:08:52.028Z,3.42
2018-08-22T13:11:20.421Z,3.40
2018-08-22T13:13:48.728Z,3.58
2018-08-22T13:16:17.080Z,3.30
2018-08-22T13:18:45.557Z,3.35
2018-08-22T13:21:13.916Z,3.77
2018-08-22T13:23:42.249Z,3.55
2018-08-22T13:26:10.615Z,3.47
2018-08-22T13:28:38.939Z,3.58
2018-08-22T13:31:07.276Z,3.30
2018-08-22T13:33:35.683Z,3.87
2018-08-22T13:36:04.068Z,5.90
2018-08-22T13:38:32.411Z,3.40
2018-08-22T13:41:00.814Z,3.90
2018-08-22T13:43:29.247Z,3.35
2018-08-22T13:45:57.591Z,3.85
2018-08-22T13:48:25.916Z,3.35
2018-08-22T13:50:54.329Z,3.62
2018-08-22T13:53:22.612Z,3.80
2018-08-22T13:55:50.961Z,3.98
2018-08-22T13:58:19.281Z,3.75
2018-08-22T14:00:47.639Z,3.92
2018-08-22T14:03:15.956Z,3.58
2018-08-22T14:05:44.302Z,3.77
2018-08-22T14:08:12.687Z,3.40
2018-08-22T14:10:41.037Z,3.87
2018-08-22T14:13:09.381Z,3.85
2018-08-22T14:15:37.796Z,3.40
2018-08-22T14:18:06.144Z,3.83
2018-08-22T14:20:34.579Z,3.30
2018-08-22T14:23:02.906Z,4.05
2018-08-22T14:25:31.354Z,3.58
2018-08-22T14:27:59.681Z,3.92
2018-08-22T14:30:28.016Z,3.65
2018-08-22T14:32:56.365Z,3.83
2018-08-22T14:35:24.689Z,3.47
2018-08-22T14:37:53.044Z,3.85
2018-08-22T14:40:21.380Z,3.58
2018-08-22T14:42:49.742Z,3.90
2018-08-22T14:45:18.065Z,4.10
2018-08-22T14:47:46.416Z,4.22
2018-08-22T14:50:14.737Z,3.37
2018-08-22T14:52:43.088Z,3.80
2018-08-22T14:55:11.406Z,4.05
2018-08-22T14:57:39.745Z,3.87
2018-08-22T15:00:08.173Z,3.72
2018-08-22T15:02:36.610Z,3.85
2018-08-22T15:05:04.945Z,3.85
2018-08-22T15:07:33.286Z,3.80
2018-08-22T15:10:01.620Z,3.60
2018-08-22T15:12:29.998Z,3.87
2018-08-22T15:14:58.320Z,3.80
2018-08-22T15:17:26.656Z,4.20
2018-08-22T15:19:54.980Z,3.52
2018-08-22T15:22:23.536Z,3.87
2018-08-22T15:24:51.850Z,3.72
2018-08-22T15:27:20.244Z,4.10
2018-08-22T15:29:48.618Z,3.70
2018-08-22T15:32:16.957Z,4.00
2018-08-22T15:34:50.411Z,3.80
2018-08-22T15:37:19.132Z,3.80
2018-08-22T15:39:47.671Z,4.12
2018-08-22T15:42:16.025Z,3.70
2018-08-22T15:44:44.400Z,4.15
2018-08-22T15:47:13.413Z,4.17
2018-08-22T15:49:41.723Z,3.75
2018-08-22T15:52:10.076Z,3.37
2018-08-22T15:54:38.400Z,3.98
2018-08-22T15:57:06.744Z,3.70
2018-08-22T15:59:35.065Z,4.15
2018-08-22T16:02:03.405Z,4.17
2018-08-22T16:04:44.096Z,4.10
2018-08-22T16:07:12.439Z,3.72
2018-08-22T16:09:40.759Z,3.75
2018-08-22T16:12:09.104Z,4.00
2018-08-22T16:14:37.443Z,3.87
2018-08-22T16:17:05.804Z,3.80
2018-08-22T16:19:34.129Z,3.50
2018-08-22T16:22:02.475Z,3.72
2018-08-22T16:24:30.816Z,3.58
2018-08-22T16:26:59.181Z,3.90
2018-08-22T16:29:27.535Z,4.00
2018-08-22T16:31:55.908Z,3.70
2018-08-22T16:34:24.253Z,3.85
2018-08-22T16:36:52.624Z,4.03
2018-08-22T16:39:37.879Z,3.80
2018-08-22T16:42:07.022Z,3.72
2018-08-22T16:44:35.354Z,3.72
2018-08-22T16:47:03.688Z,4.35
2018-08-22T16:49:32.074Z,4.17
2018-08-22T16:52:00.399Z,4.15
2018-08-22T16:54:28.744Z,4.22
2018-08-22T16:56:57.090Z,3.77
2018-08-22T16:59:25.453Z,4.00
2018-08-22T17:01:53.795Z,4.12
2018-08-22T17:04:22.159Z,3.90
2018-08-22T17:06:50.536Z,4.20
2018-08-22T17:09:18.888Z,3.85
2018-08-22T17:11:47.203Z,3.70
2018-08-22T17:14:15.548Z,4.10
2018-08-22T17:16:43.888Z,3.80
2018-08-22T17:19:13.054Z,3.30
2018-08-22T17:21:41.377Z,3.50
2018-08-22T17:24:09.729Z,3.80
2018-08-22T17:26:38.114Z,4.03
2018-08-22T17:29:06.488Z,4.03
2018-08-22T17:31:34.811Z,3.72
2018-08-22T17:34:03.708Z,4.15
2018-08-22T17:36:32.031Z,4.17
2018-08-22T17:39:01.384Z,4.10
2018-08-22T17:41:30.246Z,4.62
2018-08-22T17:44:05.727Z,3.95
2018-08-22T17:46:36.316Z,5.35
2018-08-22T17:49:04.689Z,9.55
2018-08-22T17:51:42.795Z,5.20
2018-08-22T17:54:11.180Z,5.70
2018-08-22T17:56:39.506Z,3.52
2018-08-22T17:59:07.856Z,3.67
2018-08-22T18:01:36.180Z,3.72
2018-08-22T18:04:04.545Z,4.20
2018-08-22T18:06:32.867Z,4.03
2018-08-22T18:09:01.716Z,3.95
2018-08-22T18:11:30.036Z,4.05
2018-08-22T18:13:58.805Z,3.77
2018-08-22T18:16:27.125Z,4.00
2018-08-22T18:18:55.500Z,4.50
2018-08-22T18:21:30.571Z,4.37
2018-08-22T18:23:58.928Z,4.25
2018-08-22T18:26:27.287Z,4.25
2018-08-22T18:28:55.777Z,3.92
2018-08-22T18:31:24.098Z,4.00
2018-08-22T18:34:01.170Z,4.58
2018-08-22T18:36:30.641Z,4.33
2018-08-22T18:39:07.872Z,4.65
2018-08-22T18:41:36.617Z,4.70
2018-08-22T18:44:04.976Z,4.50
2018-08-22T18:46:33.359Z,4.25
2018-08-22T18:49:01.788Z,4.55
2018-08-22T18:51:30.135Z,4.53
2018-08-22T18:53:58.602Z,5.05
2018-08-22T18:56:26.948Z,4.70
2018-08-22T18:58:55.269Z,4.55
2018-08-22T19:01:23.608Z,4.10
2018-08-22T19:03:52.131Z,4.20
2018-08-22T19:06:20.485Z,4.42
2018-08-22T19:08:48.803Z,4.25
2018-08-22T19:11:17.182Z,3.98
2018-08-22T19:13:45.516Z,4.70
2018-08-22T19:16:13.915Z,5.97
2018-08-22T19:18:42.253Z,4.40
2018-08-22T19:21:11.228Z,4.60
2018-08-22T19:23:39.656Z,4.85
2018-08-22T19:26:08.616Z,4.47
2018-08-22T19:28:54.897Z,4.90
2018-08-22T19:31:23.255Z,4.85
2018-08-22T19:33:51.586Z,4.58
2018-08-22T19:36:19.955Z,6.03
2018-08-22T19:38:48.281Z,7.05
2018-08-22T19:41:24.897Z,7.60
2018-08-22T19:43:53.318Z,7.08
2018-08-22T19:46:21.785Z,6.05
2018-08-22T19:48:50.104Z,6.12
2018-08-22T19:51:18.456Z,6.20
2018-08-22T19:54:01.309Z,5.70
2018-08-22T19:56:30.128Z,5.70
2018-08-22T19:58:58.703Z,5.22
2018-08-22T20:01:30.355Z,5.22
2018-08-22T20:03:58.689Z,5.40
2018-08-22T20:06:27.339Z,5.12
2018-08-22T20:08:57.128Z,5.15
2018-08-22T20:11:25.779Z,4.92
2018-08-22T20:13:58.653Z,5.78
2018-08-22T20:16:27.061Z,5.47
2018-08-22T20:19:03.104Z,5.15
2018-08-22T20:21:35.176Z,5.55
2018-08-22T20:24:05.062Z,5.50
2018-08-22T20:26:33.723Z,5.60
2018-08-22T20:29:03.103Z,6.50
2018-08-22T20:31:31.760Z,5.72
2018-08-22T20:34:16.548Z,5.42
2018-08-22T20:36:46.590Z,5.10
2018-08-22T20:39:15.178Z,5.03
2018-08-22T20:41:44.801Z,5.25
2018-08-22T20:44:18.795Z,4.92
2018-08-22T20:46:48.011Z,5.22
2018-08-22T20:49:18.216Z,5.65
2018-08-22T20:51:46.632Z,5.30
2018-08-22T20:54:21.057Z,4.95
2018-08-22T20:56:54.879Z,4.95
2018-08-22T20:59:23.205Z,4.75
2018-08-22T21:02:10.071Z,4.70
2018-08-22T21:04:38.549Z,5.22
2018-08-22T21:07:06.885Z,4.80
2018-08-22T21:09:35.231Z,4.90
2018-08-22T21:12:04.379Z,5.25
2018-08-22T21:14:32.687Z,5.50
2018-08-22T21:17:01.045Z,5.37
2018-08-22T21:19:29.652Z,6.00
2018-08-22T21:21:58.519Z,5.40
2018-08-22T21:24:26.888Z,6.30
2018-08-22T21:26:56.485Z,6.22
2018-08-22T21:29:25.724Z,5.70
2018-08-22T21:31:54.335Z,6.25
2018-08-22T21:34:24.019Z,6.42
2018-08-22T21:36:53.072Z,6.80
2018-08-22T21:39:25.758Z,6.75
2018-08-22T21:41:54.213Z,6.67
2018-08-22T21:44:23.338Z,6.33
2018-08-22T21:46:57.900Z,6.90
2018-08-22T21:49:26.269Z,6.83
2018-08-22T21:51:57.440Z,7.80
2018-08-22T21:54:25.899Z,8.07
2018-08-22T21:56:54.225Z,8.33
2018-08-22T21:59:22.560Z,8.77
2018-08-22T22:01:56.210Z,8.70
2018-08-22T22:04:30.656Z,9.50
2018-08-22T22:06:59.074Z,10.37
2018-08-22T22:09:27.673Z,10.70
2018-08-22T22:11:59.144Z,12.00
2018-08-22T22:14:31.038Z,12.63
2018-08-22T22:17:00.252Z,12.77
2018-08-22T22:19:30.593Z,12.70
2018-08-22T22:21:59.085Z,12.33
2018-08-22T22:24:27.472Z,13.90
2018-08-22T22:26:55.839Z,14.40
2018-08-22T22:29:26.332Z,13.47
2018-08-22T22:31:54.667Z,13.30
2018-08-22T22:34:23.040Z,13.63
2018-08-22T22:36:51.360Z,13.40
2018-08-22T22:39:34.755Z,13.20
2018-08-22T22:42:10.959Z,14.07
2018-08-22T22:44:39.634Z,13.47
2018-08-22T22:47:12.091Z,13.70
2018-08-22T22:49:40.448Z,12.97
2018-08-22T22:52:22.965Z,13.30
2018-08-22T22:54:56.614Z,13.73
2018-08-22T22:57:29.347Z,14.03
2018-08-22T23:00:02.627Z,13.67
2018-08-22T23:02:34.585Z,13.90
2018-08-22T23:05:05.791Z,14.13
2018-08-22T23:07:35.495Z,15.20
2018-08-22T23:10:06.051Z,14.63
2018-08-22T23:12:41.993Z,15.27
2018-08-22T23:15:11.867Z,15.37
2018-08-22T23:17:40.688Z,15.93
2018-08-22T23:20:43.707Z,16.47
2018-08-22T23:23:25.611Z,16.30
2018-08-22T23:25:54.688Z,16.40
2018-08-22T23:28:23.028Z,16.57
2018-08-22T23:30:51.344Z,15.00
2018-08-22T23:33:19.736Z,17.77
2018-08-22T23:35:48.082Z,17.03
2018-08-22T23:38:21.783Z,17.87
2018-08-22T23:40:50.117Z,17.40
2018-08-22T23:43:18.532Z,16.30
2018-08-22T23:45:52.088Z,16.93
2018-08-22T23:48:25.857Z,17.93
2018-08-22T23:50:57.350Z,16.80
2018-08-22T23:53:30.205Z,17.23
2018-08-22T23:56:10.689Z,17.03
2018-08-22T23:58:39.856Z,17.43
